createdAt,value
2023-04-14T00:00:27.954Z,67.35
2023-04-14T00:03:10.191Z,67.56
2023-04-14T00:05:39.473Z,67.99
2023-04-14T00:08:12.130Z,68.55
2023-04-14T00:10:42.689Z,68.92
2023-04-14T00:13:10.970Z,68.94
2023-04-14T00:15:41.460Z,68.94
2023-04-14T00:18:12.322Z,69.12
2023-04-14T00:20:40.496Z,69.22
2023-04-14T00:23:11.527Z,69.17
2023-04-14T00:25:40.117Z,69.30
2023-04-14T00:28:08.808Z,69.31
2023-04-14T00:30:40.053Z,69.37
2023-04-14T00:33:09.805Z,69.47
2023-04-14T00:35:37.930Z,69.70
2023-04-14T00:38:06.652Z,69.61
2023-04-14T00:40:35.117Z,69.49
2023-04-14T00:43:04.094Z,69.34
2023-04-14T00:45:32.434Z,69.25
2023-04-14T00:48:00.662Z,68.86
2023-04-14T00:50:29.017Z,68.54
2023-04-14T00:52:59.046Z,68.31
2023-04-14T00:55:28.035Z,68.08
2023-04-14T00:57:56.520Z,68.20
2023-04-14T01:00:25.615Z,68.05
2023-04-14T01:02:55.078Z,67.85
2023-04-14T01:05:24.245Z,67.59
2023-04-14T01:07:54.949Z,67.64
2023-04-14T01:10:24.510Z,67.71
2023-04-14T01:13:16.928Z,67.77
2023-04-14T01:15:53.082Z,67.57
2023-04-14T01:19:00.912Z,67.67
2023-04-14T01:21:33.336Z,67.50
2023-04-14T01:24:16.652Z,67.33
2023-04-14T01:26:44.806Z,67.54
2023-04-14T01:29:20.054Z,67.74
2023-04-14T01:31:55.638Z,67.95
2023-04-14T01:34:33.663Z,68.01
2023-04-14T01:37:07.673Z,68.30
2023-04-14T01:39:38.664Z,68.87
2023-04-14T01:42:13.315Z,69.29
2023-04-14T01:44:41.794Z,69.81
2023-04-14T01:47:13.041Z,70.29
2023-04-14T01:49:41.474Z,70.81
2023-04-14T01:52:11.096Z,71.08
2023-04-14T01:54:41.763Z,71.14
2023-04-14T01:57:11.375Z,71.24
2023-04-14T01:59:41.906Z,71.27
2023-04-14T02:02:11.591Z,71.28
2023-04-14T02:04:39.941Z,71.30
2023-04-14T02:07:08.681Z,71.04
2023-04-14T02:09:37.272Z,71.02
2023-04-14T02:12:05.644Z,71.03
2023-04-14T02:14:34.032Z,70.99
2023-04-14T02:17:03.184Z,70.85
2023-04-14T02:19:32.000Z,70.69
2023-04-14T02:22:03.148Z,70.49
2023-04-14T02:24:32.376Z,70.11
2023-04-14T02:27:07.505Z,69.82
2023-04-14T02:29:35.836Z,69.62
2023-04-14T02:32:05.769Z,69.46
2023-04-14T02:34:48.292Z,69.45
2023-04-14T02:37:18.628Z,69.25
2023-04-14T02:39:52.303Z,69.11
2023-04-14T02:42:21.023Z,68.93
2023-04-14T02:44:51.849Z,68.60
2023-04-14T02:47:33.190Z,68.57
2023-04-14T02:50:02.551Z,68.34
2023-04-14T02:52:31.728Z,68.29
2023-04-14T02:55:00.731Z,68.11
2023-04-14T02:57:29.829Z,68.23
2023-04-14T02:59:58.816Z,68.22
2023-04-14T03:02:29.983Z,68.25
2023-04-14T03:05:05.542Z,68.37
2023-04-14T03:07:51.101Z,68.43
2023-04-14T03:10:20.210Z,68.41
2023-04-14T03:12:48.871Z,68.47
2023-04-14T03:15:17.659Z,68.56
2023-04-14T03:17:48.760Z,68.74
2023-04-14T03:20:20.366Z,68.95
2023-04-14T03:23:01.227Z,69.20
2023-04-14T03:25:37.285Z,69.18
2023-04-14T03:28:09.971Z,69.23
2023-04-14T03:30:41.809Z,69.29
2023-04-14T03:33:14.819Z,69.18
2023-04-14T03:35:43.931Z,69.14
2023-04-14T03:38:12.203Z,69.18
2023-04-14T03:40:42.425Z,69.08
2023-04-14T03:43:13.039Z,69.24
2023-04-14T03:45:47.670Z,69.45
2023-04-14T03:48:20.042Z,69.57
2023-04-14T03:50:51.917Z,69.53
2023-04-14T03:53:21.376Z,69.52
2023-04-14T03:55:51.652Z,69.44
2023-04-14T03:58:24.514Z,69.70
2023-04-14T04:00:53.199Z,69.90
2023-04-14T04:03:22.070Z,69.96
2023-04-14T04:05:50.678Z,70.03
2023-04-14T04:08:19.263Z,70.02
2023-04-14T04:10:47.841Z,70.13
2023-04-14T04:13:19.365Z,70.35
2023-04-14T04:15:48.120Z,70.32
2023-04-14T04:18:17.494Z,70.28
2023-04-14T04:20:46.378Z,70.17
2023-04-14T04:23:17.678Z,70.06
2023-04-14T04:25:46.010Z,69.97
2023-04-14T04:28:26.686Z,70.11
2023-04-14T04:30:56.661Z,70.16
2023-04-14T04:33:26.670Z,70.15
2023-04-14T04:35:55.190Z,70.06
2023-04-14T04:38:24.774Z,69.91
2023-04-14T04:40:53.437Z,69.81
2023-04-14T04:43:29.952Z,69.84
2023-04-14T04:45:58.785Z,69.93
2023-04-14T04:48:27.837Z,69.98
2023-04-14T04:50:56.381Z,70.00
2023-04-14T04:53:24.682Z,69.96
2023-04-14T04:55:55.900Z,70.02
2023-04-14T04:58:24.321Z,69.95
2023-04-14T05:00:54.563Z,69.83
2023-04-14T05:03:24.498Z,69.78
2023-04-14T05:05:52.719Z,69.60
2023-04-14T05:08:21.734Z,69.62
2023-04-14T05:10:51.747Z,69.36
2023-04-14T05:13:22.830Z,69.35
2023-04-14T05:15:52.178Z,69.36
2023-04-14T05:18:21.610Z,69.38
2023-04-14T05:20:49.868Z,69.39
2023-04-14T05:23:18.458Z,69.28
2023-04-14T05:25:51.440Z,69.32
2023-04-14T05:28:23.718Z,69.34
2023-04-14T05:30:52.144Z,69.41
2023-04-14T05:33:22.094Z,69.42
2023-04-14T05:35:53.828Z,69.24
2023-04-14T05:38:22.138Z,68.96
2023-04-14T05:40:51.199Z,68.92
2023-04-14T05:43:20.040Z,68.94
2023-04-14T05:45:48.321Z,69.01
2023-04-14T05:48:17.622Z,68.94
2023-04-14T05:50:46.870Z,69.08
2023-04-14T05:53:15.495Z,69.09
2023-04-14T05:55:43.903Z,68.77
2023-04-14T05:58:12.786Z,68.85
2023-04-14T06:00:43.259Z,69.08
2023-04-14T06:03:31.864Z,69.04
2023-04-14T06:06:00.346Z,68.82
2023-04-14T06:08:30.572Z,68.72
2023-04-14T06:10:59.368Z,68.74
2023-04-14T06:13:31.162Z,68.49
2023-04-14T06:16:01.083Z,68.39
2023-04-14T06:18:29.604Z,68.37
2023-04-14T06:20:57.785Z,68.62
2023-04-14T06:23:26.873Z,68.62
2023-04-14T06:25:57.329Z,68.82
2023-04-14T06:28:26.492Z,68.88
2023-04-14T06:30:54.777Z,68.61
2023-04-14T06:33:22.955Z,68.79
2023-04-14T06:35:51.784Z,69.16
2023-04-14T06:38:20.221Z,69.36
2023-04-14T06:40:50.223Z,69.22
2023-04-14T06:43:20.094Z,69.07
2023-04-14T06:45:51.066Z,69.33
2023-04-14T06:48:19.482Z,69.37
2023-04-14T06:50:56.194Z,69.46
2023-04-14T06:53:26.292Z,69.48
2023-04-14T06:56:00.856Z,69.51
2023-04-14T06:58:31.202Z,69.46
2023-04-14T07:01:01.696Z,69.56
2023-04-14T07:03:31.382Z,69.52
2023-04-14T07:06:11.867Z,69.58
2023-04-14T07:08:40.833Z,69.53
2023-04-14T07:11:10.543Z,69.62
2023-04-14T07:13:39.629Z,69.57
2023-04-14T07:16:10.217Z,69.34
2023-04-14T07:18:39.044Z,69.37
2023-04-14T07:21:07.232Z,69.51
2023-04-14T07:23:40.806Z,69.61
2023-04-14T07:26:08.916Z,69.44
2023-04-14T07:28:37.317Z,69.45
2023-04-14T07:31:10.697Z,69.35
2023-04-14T07:33:40.474Z,69.19
2023-04-14T07:36:09.491Z,69.46
2023-04-14T07:38:37.786Z,69.64
2023-04-14T07:41:06.964Z,69.79
2023-04-14T07:43:35.956Z,69.58
2023-04-14T07:46:05.735Z,69.50
2023-04-14T07:48:37.611Z,69.39
2023-04-14T07:51:09.271Z,69.33
2023-04-14T07:53:43.671Z,69.52
2023-04-14T07:56:12.580Z,69.60
2023-04-14T07:58:42.802Z,69.71
2023-04-14T08:01:11.382Z,69.65
2023-04-14T08:03:42.752Z,69.58
2023-04-14T08:06:12.953Z,69.69
2023-04-14T08:08:43.531Z,69.62
2023-04-14T08:11:12.315Z,69.57
2023-04-14T08:13:40.890Z,69.21
2023-04-14T08:16:09.514Z,69.22
2023-04-14T08:18:39.863Z,69.15
2023-04-14T08:21:08.140Z,68.99
2023-04-14T08:23:39.472Z,68.94
2023-04-14T08:26:08.261Z,69.09
2023-04-14T08:28:37.275Z,69.24
2023-04-14T08:31:05.903Z,69.35
2023-04-14T08:33:34.770Z,69.22
2023-04-14T08:36:03.428Z,69.24
2023-04-14T08:38:36.847Z,68.93
2023-04-14T08:41:05.920Z,68.94
2023-04-14T08:43:34.303Z,68.66
2023-04-14T08:46:04.991Z,68.63
2023-04-14T08:48:33.729Z,68.66
2023-04-14T08:51:02.505Z,68.68
2023-04-14T08:53:32.229Z,68.68
2023-04-14T08:56:03.317Z,68.48
2023-04-14T08:58:31.650Z,68.54
2023-04-14T09:01:01.926Z,68.57
2023-04-14T09:03:31.635Z,68.53
2023-04-14T09:05:59.977Z,68.24
2023-04-14T09:08:39.330Z,67.88
2023-04-14T09:11:08.452Z,68.06
2023-04-14T09:13:36.769Z,68.19
2023-04-14T09:16:05.420Z,68.07
2023-04-14T09:18:34.774Z,68.08
2023-04-14T09:21:31.187Z,67.74
2023-04-14T09:23:52.928Z,67.74
2023-04-14T09:26:20.993Z,67.51
2023-04-14T09:28:49.277Z,67.47
2023-04-14T09:31:19.893Z,67.17
2023-04-14T09:33:50.977Z,67.15
2023-04-14T09:36:23.545Z,66.96
2023-04-14T09:38:52.743Z,66.63
2023-04-14T09:41:22.899Z,66.51
2023-04-14T09:43:52.798Z,66.22
2023-04-14T09:46:22.010Z,66.17
2023-04-14T09:48:50.173Z,66.28
2023-04-14T09:51:21.997Z,66.20
2023-04-14T09:53:52.931Z,66.41
2023-04-14T09:56:26.776Z,66.47
2023-04-14T09:59:02.345Z,66.62
2023-04-14T10:01:33.960Z,66.25
2023-04-14T10:04:04.162Z,66.28
2023-04-14T10:06:32.397Z,66.36
2023-04-14T10:09:01.664Z,66.51
2023-04-14T10:11:33.079Z,66.32
2023-04-14T10:14:04.322Z,66.46
2023-04-14T10:16:34.118Z,66.54
2023-04-14T10:19:03.693Z,66.65
2023-04-14T10:21:36.691Z,66.41
2023-04-14T10:24:05.221Z,66.26
2023-04-14T10:26:34.857Z,66.32
2023-04-14T10:29:03.502Z,66.41
2023-04-14T10:31:37.024Z,66.41
2023-04-14T10:34:12.352Z,66.60
2023-04-14T10:36:41.591Z,66.59
2023-04-14T10:39:11.887Z,66.03
2023-04-14T10:41:43.126Z,65.51
2023-04-14T10:44:37.731Z,65.43
2023-04-14T10:47:07.884Z,65.15
2023-04-14T10:51:10.901Z,65.59
2023-04-14T10:53:47.794Z,65.07
2023-04-14T10:56:16.258Z,64.76
2023-04-14T10:58:54.512Z,64.27
2023-04-14T11:01:24.384Z,64.16
2023-04-14T11:03:54.570Z,64.19
2023-04-14T11:06:47.808Z,64.41
2023-04-14T11:09:32.709Z,64.39
2023-04-14T11:12:25.022Z,64.26
2023-04-14T11:15:03.946Z,64.37
2023-04-14T11:17:37.800Z,64.45
2023-04-14T11:20:19.653Z,64.69
2023-04-14T11:22:54.222Z,64.83
2023-04-14T11:25:24.519Z,64.71
2023-04-14T11:27:53.641Z,64.77
2023-04-14T11:30:23.293Z,64.74
2023-04-14T11:32:57.423Z,64.82
2023-04-14T11:35:29.176Z,64.81
2023-04-14T11:38:00.157Z,64.84
2023-04-14T11:40:28.698Z,64.94
2023-04-14T11:42:59.152Z,64.53
2023-04-14T11:45:31.096Z,64.39
2023-04-14T11:48:02.062Z,64.44
2023-04-14T11:50:32.625Z,64.23
2023-04-14T11:53:00.831Z,64.18
2023-04-14T11:55:30.282Z,63.94
2023-04-14T11:57:59.326Z,63.67
2023-04-14T12:00:28.138Z,63.55
2023-04-14T12:02:57.700Z,63.58
2023-04-14T12:05:31.308Z,63.70
2023-04-14T12:09:58.547Z,63.51
2023-04-14T12:10:56.312Z,63.38
2023-04-14T12:13:24.742Z,63.39
2023-04-14T12:15:54.405Z,63.60
2023-04-14T12:18:23.088Z,63.36
2023-04-14T12:20:54.073Z,63.14
2023-04-14T12:23:22.311Z,63.03
2023-04-14T12:25:52.775Z,62.89
2023-04-14T12:28:25.801Z,62.69
2023-04-14T12:30:56.821Z,62.41
2023-04-14T12:33:26.654Z,62.30
2023-04-14T12:36:04.926Z,62.36
2023-04-14T12:38:33.646Z,62.38
2023-04-14T12:41:02.406Z,62.42
2023-04-14T12:43:35.581Z,62.54
2023-04-14T12:46:04.413Z,62.50
2023-04-14T12:48:41.144Z,61.33
2023-04-14T12:51:13.597Z,60.39
2023-04-14T12:53:42.824Z,60.01
2023-04-14T12:56:12.255Z,59.89
2023-04-14T12:58:43.072Z,59.83
2023-04-14T13:01:11.757Z,59.64
2023-04-14T13:03:52.237Z,59.75
2023-04-14T13:06:22.941Z,59.88
2023-04-14T13:08:52.627Z,60.17
2023-04-14T13:11:21.775Z,60.34
2023-04-14T13:13:55.144Z,60.54
2023-04-14T13:16:26.376Z,60.73
2023-04-14T13:18:55.815Z,60.76
2023-04-14T13:21:27.356Z,61.14
2023-04-14T13:23:55.661Z,61.32
2023-04-14T13:26:23.735Z,61.64
2023-04-14T13:28:51.982Z,61.71
2023-04-14T13:31:20.903Z,61.58
2023-04-14T13:33:49.154Z,61.47
2023-04-14T13:36:17.534Z,61.33
2023-04-14T13:38:47.388Z,61.21
2023-04-14T13:41:15.859Z,60.86
2023-04-14T13:43:44.236Z,60.08
2023-04-14T13:46:12.963Z,59.66
2023-04-14T13:48:43.660Z,59.41
2023-04-14T13:51:12.832Z,59.45
2023-04-14T13:53:40.801Z,59.04
2023-04-14T13:56:10.413Z,58.52
2023-04-14T13:58:38.621Z,57.91
2023-04-14T14:01:11.336Z,57.80
2023-04-14T14:03:45.260Z,57.95
2023-04-14T14:06:14.678Z,58.02
2023-04-14T14:08:43.164Z,57.92
2023-04-14T14:11:16.082Z,58.02
2023-04-14T14:13:44.835Z,58.21
2023-04-14T14:16:14.505Z,58.21
2023-04-14T14:18:47.525Z,58.04
2023-04-14T14:21:17.543Z,57.73
2023-04-14T14:23:45.931Z,57.40
2023-04-14T14:26:14.225Z,57.64
2023-04-14T14:28:45.248Z,57.56
2023-04-14T14:31:14.513Z,57.58
2023-04-14T14:33:43.644Z,57.62
2023-04-14T14:36:11.917Z,57.87
2023-04-14T14:38:40.418Z,58.06
2023-04-14T14:41:08.856Z,57.88
2023-04-14T14:43:37.677Z,57.83
2023-04-14T14:46:10.059Z,57.89
2023-04-14T14:48:40.906Z,57.72
2023-04-14T14:51:08.998Z,57.20
2023-04-14T14:53:39.118Z,57.32
2023-04-14T14:56:07.930Z,57.17
2023-04-14T14:58:36.277Z,57.26
2023-04-14T15:01:06.101Z,57.28
2023-04-14T15:03:36.167Z,57.33
2023-04-14T15:06:04.924Z,57.35
2023-04-14T15:08:33.293Z,57.41
2023-04-14T15:11:01.366Z,57.52
2023-04-14T15:13:32.751Z,57.56
2023-04-14T15:16:01.017Z,57.60
2023-04-14T15:18:35.560Z,57.60
2023-04-14T15:21:04.973Z,57.71
2023-04-14T15:23:37.141Z,57.90
2023-04-14T15:26:14.232Z,57.91
2023-04-14T15:28:42.603Z,58.12
2023-04-14T15:31:11.180Z,58.26
2023-04-14T15:33:39.980Z,58.49
2023-04-14T15:36:09.066Z,58.60
2023-04-14T15:38:38.761Z,58.75
2023-04-14T15:41:06.831Z,58.97
2023-04-14T15:43:36.587Z,59.25
2023-04-14T15:46:05.037Z,59.45
2023-04-14T15:48:33.682Z,59.41
2023-04-14T15:51:05.114Z,59.51
2023-04-14T15:53:33.585Z,59.76
2023-04-14T15:56:02.151Z,59.87
2023-04-14T15:58:31.958Z,59.99
2023-04-14T16:00:59.989Z,60.14
2023-04-14T16:03:28.776Z,60.15
2023-04-14T16:06:01.973Z,60.49
2023-04-14T16:08:30.562Z,60.44
2023-04-14T16:10:59.435Z,60.53
2023-04-14T16:13:29.513Z,60.65
2023-04-14T16:15:58.713Z,60.69
2023-04-14T16:18:26.859Z,60.85
2023-04-14T16:20:55.473Z,61.10
2023-04-14T16:23:24.680Z,61.10
2023-04-14T16:25:52.851Z,61.23
2023-04-14T16:28:27.179Z,61.51
2023-04-14T16:30:59.363Z,61.48
2023-04-14T16:33:28.750Z,61.51
2023-04-14T16:35:59.990Z,61.60
2023-04-14T16:38:28.499Z,61.65
2023-04-14T16:40:57.626Z,61.78
2023-04-14T16:43:27.694Z,61.67
2023-04-14T16:46:03.267Z,61.67
2023-04-14T16:48:32.854Z,61.62
2023-04-14T16:51:08.372Z,61.66
2023-04-14T16:53:37.898Z,61.56
2023-04-14T16:56:07.664Z,61.48
2023-04-14T16:58:45.602Z,61.38
2023-04-14T17:01:15.642Z,61.51
2023-04-14T17:03:44.305Z,61.52
2023-04-14T17:06:12.773Z,61.67
2023-04-14T17:08:41.865Z,61.77
2023-04-14T17:11:10.023Z,61.82
2023-04-14T17:13:38.733Z,61.83
2023-04-14T17:16:17.365Z,61.85
2023-04-14T17:18:46.456Z,61.93
2023-04-14T17:21:14.772Z,61.90
2023-04-14T17:23:55.423Z,61.91
2023-04-14T17:26:26.254Z,61.97
2023-04-14T17:28:54.400Z,61.99
2023-04-14T17:31:24.852Z,62.08
2023-04-14T17:33:53.611Z,62.21
2023-04-14T17:39:41.033Z,62.52
2023-04-14T17:42:09.928Z,62.26
2023-04-14T17:44:47.352Z,62.19
2023-04-14T17:47:41.725Z,61.97
2023-04-14T17:56:52.555Z,61.77
2023-04-14T17:59:31.416Z,61.66
2023-04-14T18:03:19.654Z,61.81
2023-04-14T18:12:38.026Z,61.75
2023-04-14T18:28:23.826Z,61.72
2023-04-14T18:30:56.089Z,60.79
2023-04-14T18:33:25.709Z,60.77
2023-04-14T18:35:55.632Z,60.83
2023-04-14T18:38:24.418Z,60.89
2023-04-14T18:41:05.041Z,60.94
2023-04-14T18:43:33.268Z,61.12
2023-04-14T18:46:02.356Z,61.22
2023-04-14T18:48:34.316Z,61.36
2023-04-14T18:51:06.576Z,61.31
2023-04-14T18:53:35.009Z,61.43
2023-04-14T18:56:03.338Z,61.38
2023-04-14T18:58:32.124Z,61.46
2023-04-14T19:01:00.602Z,61.56
2023-04-14T19:03:31.998Z,61.58
2023-04-14T19:06:00.461Z,61.58
2023-04-14T19:08:28.892Z,61.80
2023-04-14T19:11:05.691Z,61.88
2023-04-14T19:13:34.274Z,61.85
2023-04-14T19:16:06.400Z,61.99
2023-04-14T19:18:35.623Z,62.02
2023-04-14T19:21:04.836Z,62.02
2023-04-14T19:23:34.263Z,62.09
2023-04-14T19:26:03.231Z,62.13
2023-04-14T19:28:39.974Z,62.05
2023-04-14T19:31:08.530Z,62.19
2023-04-14T19:33:36.660Z,62.31
2023-04-14T19:36:14.924Z,62.38
2023-04-14T19:38:44.289Z,62.41
2023-04-14T19:41:12.500Z,62.40
2023-04-14T19:43:42.718Z,62.28
2023-04-14T19:46:13.183Z,62.36
2023-04-14T19:48:42.668Z,62.34
2023-04-14T19:51:11.502Z,62.21
2023-04-14T19:53:39.986Z,62.10
2023-04-14T19:56:08.827Z,62.03
2023-04-14T19:58:37.155Z,61.93
2023-04-14T20:01:06.123Z,61.75
2023-04-14T20:03:36.653Z,61.38
2023-04-14T20:06:05.057Z,61.13
2023-04-14T20:08:34.690Z,61.05
2023-04-14T20:11:04.903Z,61.01
2023-04-14T20:13:35.676Z,60.63
2023-04-14T20:16:10.483Z,60.20
2023-04-14T20:18:58.499Z,59.93
2023-04-14T20:21:27.286Z,59.76
2023-04-14T20:23:55.569Z,59.54
2023-04-14T20:26:23.640Z,59.43
2023-04-14T20:28:51.651Z,59.39
2023-04-14T20:31:19.794Z,59.47
2023-04-14T20:33:51.190Z,59.48
2023-04-14T20:36:19.407Z,59.52
2023-04-14T20:38:47.450Z,59.43
2023-04-14T20:41:20.732Z,59.52
2023-04-14T20:43:49.227Z,59.46
2023-04-14T20:46:17.384Z,59.16
2023-04-14T20:48:49.129Z,58.92
2023-04-14T20:51:18.572Z,58.90
2023-04-14T20:53:46.730Z,58.84
2023-04-14T20:56:20.063Z,58.80
2023-04-14T20:58:49.317Z,58.89
2023-04-14T21:01:17.505Z,58.92
2023-04-14T21:03:46.969Z,58.92
2023-04-14T21:06:16.219Z,58.97
2023-04-14T21:08:44.241Z,58.86
2023-04-14T21:11:16.879Z,58.68
2023-04-14T21:15:29.925Z,58.78
2023-04-14T21:16:37.292Z,58.65
2023-04-14T21:19:06.481Z,58.49
2023-04-14T21:21:43.786Z,58.35
2023-04-14T21:24:12.609Z,58.33
2023-04-14T21:26:40.602Z,58.38
2023-04-14T21:29:14.503Z,58.49
2023-04-14T21:31:42.806Z,58.41
2023-04-14T21:34:10.925Z,58.35
2023-04-14T21:36:39.793Z,58.33
2023-04-14T21:39:08.475Z,58.45
2023-04-14T21:41:36.595Z,58.44
2023-04-14T21:44:06.022Z,58.45
2023-04-14T21:46:34.384Z,58.38
2023-04-14T21:49:03.785Z,58.42
2023-04-14T21:51:32.298Z,58.55
2023-04-14T21:54:01.907Z,58.63
2023-04-14T21:56:31.453Z,58.62
2023-04-14T21:58:59.564Z,58.68
2023-04-14T22:01:29.980Z,58.71
2023-04-14T22:04:00.491Z,58.82
2023-04-14T22:06:29.580Z,58.88
2023-04-14T22:09:10.234Z,58.76
2023-04-14T22:11:38.866Z,58.77
2023-04-14T22:14:07.206Z,58.69
2023-04-14T22:16:37.858Z,58.87
2023-04-14T22:19:09.231Z,58.89
2023-04-14T22:21:37.883Z,58.88
2023-04-14T22:24:06.399Z,58.87
2023-04-14T22:26:35.483Z,58.81
2023-04-14T22:29:04.412Z,58.60
2023-04-14T22:31:32.993Z,58.52
2023-04-14T22:34:02.620Z,58.53
2023-04-14T22:36:30.910Z,58.51
2023-04-14T22:38:59.562Z,58.66
2023-04-14T22:41:27.937Z,58.83
2023-04-14T22:43:56.487Z,58.90
2023-04-14T22:46:26.520Z,59.00
2023-04-14T22:48:56.564Z,59.01
2023-04-14T22:51:24.846Z,59.11
2023-04-14T22:53:54.097Z,59.15
2023-04-14T22:56:23.372Z,59.10
2023-04-14T22:58:51.527Z,59.19
2023-04-14T23:01:24.556Z,59.22
2023-04-14T23:03:55.941Z,59.41
2023-04-14T23:06:24.255Z,59.56
2023-04-14T23:08:54.367Z,59.56
2023-04-14T23:11:23.225Z,59.68
2023-04-14T23:13:51.491Z,59.64
2023-04-14T23:16:22.475Z,59.74
2023-04-14T23:18:54.077Z,59.82
2023-04-14T23:21:22.726Z,59.85
2023-04-14T23:23:51.281Z,59.90
2023-04-14T23:26:27.544Z,60.05
2023-04-14T23:28:57.128Z,60.00
2023-04-14T23:31:25.174Z,59.99
2023-04-14T23:33:53.301Z,60.01
2023-04-14T23:36:22.579Z,59.93
2023-04-14T23:38:50.574Z,59.97
2023-04-14T23:41:21.909Z,59.93
2023-04-14T23:43:50.768Z,59.76
2023-04-14T23:46:19.191Z,59.80
2023-04-14T23:48:54.437Z,60.03
2023-04-14T23:51:23.792Z,59.98
2023-04-14T23:53:52.130Z,59.83
2023-04-14T23:56:24.302Z,59.60
2023-04-14T23:58:53.234Z,59.61
